createdAt,value
2022-08-05T00:00:00.627Z,20.98
2022-08-05T00:01:01.020Z,20.96
2022-08-05T00:02:07.726Z,20.92
2022-08-05T00:03:00.825Z,20.88
2022-08-05T00:04:00.949Z,20.85
2022-08-05T00:05:01.125Z,20.85
2022-08-05T00:06:20.157Z,20.85
2022-08-05T00:07:00.426Z,20.84
2022-08-05T00:08:01.558Z,20.83
2022-08-05T00:09:01.007Z,20.83
2022-08-05T00:10:00.849Z,20.84
2022-08-05T00:11:01.430Z,20.83
2022-08-05T00:12:01.193Z,20.83
2022-08-05T00:13:00.318Z,20.81
2022-08-05T00:14:00.463Z,20.8
2022-08-05T00:15:54.093Z,20.78
2022-08-05T00:16:00.763Z,20.78
2022-08-05T00:17:02.059Z,20.77
2022-08-05T00:18:02.538Z,20.74
2022-08-05T00:19:01.217Z,20.73
2022-08-05T00:20:02.786Z,20.7
2022-08-05T00:21:00.517Z,20.68
2022-08-05T00:22:00.672Z,20.65
2022-08-05T00:23:13.038Z,20.6
2022-08-05T00:24:10.043Z,20.57
2022-08-05T00:25:01.255Z,20.55
2022-08-05T00:26:00.262Z,20.53
2022-08-05T00:27:00.509Z,20.51
2022-08-05T00:28:00.567Z,20.51
2022-08-05T00:29:00.717Z,20.51
2022-08-05T00:30:03.213Z,20.51
2022-08-05T00:31:04.227Z,20.5
2022-08-05T00:32:12.398Z,20.5
2022-08-05T00:33:00.320Z,20.53
2022-08-05T00:34:56.865Z,20.53
2022-08-05T00:35:06.962Z,20.53
2022-08-05T00:36:16.595Z,20.53
2022-08-05T00:37:12.942Z,20.51
2022-08-05T00:38:01.074Z,20.54
2022-08-05T00:39:01.301Z,20.54
2022-08-05T00:40:00.505Z,20.51
2022-08-05T00:41:00.550Z,20.48
2022-08-05T00:42:00.694Z,20.45
2022-08-05T00:43:00.835Z,20.45
2022-08-05T00:44:00.994Z,20.45
2022-08-05T00:45:01.155Z,20.45
2022-08-05T00:46:00.330Z,20.47
2022-08-05T00:47:04.257Z,20.46
2022-08-05T00:48:05.306Z,20.44
2022-08-05T00:49:00.743Z,20.42
2022-08-05T00:50:00.902Z,20.4
2022-08-05T00:51:01.062Z,20.4
2022-08-05T00:52:01.218Z,20.37
2022-08-05T00:53:00.343Z,20.39
2022-08-05T00:54:02.504Z,20.39
2022-08-05T00:55:00.640Z,20.39
2022-08-05T00:56:00.797Z,20.4
2022-08-05T00:57:00.976Z,20.41
2022-08-05T00:58:01.099Z,20.4
2022-08-05T00:59:01.257Z,20.39
2022-08-05T01:00:00.415Z,20.39
2022-08-05T01:01:00.701Z,20.39
2022-08-05T01:02:00.734Z,20.39
2022-08-05T01:03:00.866Z,20.37
2022-08-05T01:04:01.302Z,20.37
2022-08-05T01:05:01.199Z,20.34
2022-08-05T01:06:00.333Z,20.31
2022-08-05T01:07:00.505Z,20.32
2022-08-05T01:08:40.259Z,20.32
2022-08-05T01:09:00.831Z,20.32
2022-08-05T01:10:01.002Z,20.31
2022-08-05T01:11:01.150Z,20.29
2022-08-05T01:12:04.763Z,20.27
2022-08-05T01:13:05.276Z,20.25
2022-08-05T01:14:00.601Z,20.21
2022-08-05T01:15:04.037Z,20.19
2022-08-05T01:16:00.902Z,20.18
2022-08-05T01:17:01.104Z,20.18
2022-08-05T01:18:01.226Z,20.19
2022-08-05T01:19:00.876Z,20.19
2022-08-05T01:20:02.903Z,20.18
2022-08-05T01:21:00.712Z,20.17
2022-08-05T01:22:00.890Z,20.17
2022-08-05T01:23:01.010Z,20.25
2022-08-05T01:24:01.172Z,20.3
2022-08-05T01:25:00.305Z,20.34
2022-08-05T01:26:00.452Z,20.42
2022-08-05T01:27:00.622Z,20.43
2022-08-05T01:28:00.757Z,20.42
2022-08-05T01:29:03.460Z,20.39
2022-08-05T01:30:01.061Z,20.33
2022-08-05T01:31:01.207Z,20.29
2022-08-05T01:32:00.385Z,20.26
2022-08-05T01:33:00.515Z,20.22
2022-08-05T01:34:00.665Z,20.21
2022-08-05T01:35:00.801Z,20.19
2022-08-05T01:36:00.964Z,20.19
2022-08-05T01:37:01.141Z,20.18
2022-08-05T01:38:01.255Z,20.18
2022-08-05T01:39:01.309Z,20.18
2022-08-05T01:40:00.601Z,20.17
2022-08-05T01:41:01.625Z,20.16
2022-08-05T01:42:00.904Z,20.18
2022-08-05T01:43:01.045Z,20.18
2022-08-05T01:44:01.192Z,20.19
2022-08-05T01:45:03.601Z,20.19
2022-08-05T01:46:07.331Z,20.18
2022-08-05T01:47:00.678Z,20.17
2022-08-05T01:48:00.788Z,20.16
2022-08-05T01:49:00.938Z,20.14
2022-08-05T01:50:01.667Z,20.14
2022-08-05T01:51:04.650Z,20.15
2022-08-05T01:52:01.101Z,20.13
2022-08-05T01:53:00.546Z,20.07
2022-08-05T01:54:02.154Z,20.03
2022-08-05T01:55:00.870Z,20
2022-08-05T01:56:01.013Z,19.99
2022-08-05T01:58:10.980Z,19.96
2022-08-05T01:58:13.784Z,19.99
2022-08-05T01:59:00.467Z,19.92
2022-08-05T02:00:00.617Z,19.91
2022-08-05T02:01:00.770Z,19.91
2022-08-05T02:02:00.982Z,19.91
2022-08-05T02:03:03.705Z,19.91
2022-08-05T02:04:01.224Z,19.91
2022-08-05T02:05:00.373Z,19.91
2022-08-05T02:06:01.012Z,19.87
2022-08-05T02:07:00.671Z,19.84
2022-08-05T02:08:01.214Z,19.82
2022-08-05T02:09:00.979Z,19.8
2022-08-05T02:10:01.110Z,19.76
2022-08-05T02:11:00.270Z,19.72
2022-08-05T02:12:00.415Z,19.69
2022-08-05T02:13:00.569Z,19.66
2022-08-05T02:14:00.741Z,19.63
2022-08-05T02:15:00.889Z,19.63
2022-08-05T02:16:01.036Z,19.62
2022-08-05T02:17:01.178Z,19.59
2022-08-05T02:18:27.625Z,19.58
2022-08-05T02:19:00.495Z,19.57
2022-08-05T02:20:00.667Z,19.53
2022-08-05T02:21:00.797Z,19.46
2022-08-05T02:22:00.951Z,19.43
2022-08-05T02:23:01.102Z,19.45
2022-08-05T02:24:00.263Z,19.44
2022-08-05T02:25:00.465Z,19.44
2022-08-05T02:26:00.562Z,19.42
2022-08-05T02:27:00.706Z,19.41
2022-08-05T02:28:00.862Z,19.37
2022-08-05T02:29:01.023Z,19.36
2022-08-05T02:30:01.217Z,19.35
2022-08-05T02:31:00.308Z,19.31
2022-08-05T02:32:00.469Z,19.27
2022-08-05T02:33:00.678Z,19.24
2022-08-05T02:34:00.790Z,19.24
2022-08-05T02:35:02.150Z,19.22
2022-08-05T02:36:01.473Z,19.22
2022-08-05T02:37:01.247Z,19.21
2022-08-05T02:38:00.432Z,19.17
2022-08-05T02:39:00.572Z,19.15
2022-08-05T02:40:00.697Z,19.12
2022-08-05T02:41:00.865Z,19.09
2022-08-05T02:42:01.594Z,19.08
2022-08-05T02:43:01.145Z,19.09
2022-08-05T02:44:06.184Z,19.1
2022-08-05T02:45:00.456Z,19.1
2022-08-05T02:46:01.117Z,19.08
2022-08-05T02:47:01.190Z,19.04
2022-08-05T02:48:11.402Z,19.03
2022-08-05T02:49:01.084Z,19
2022-08-05T02:50:01.240Z,18.95
2022-08-05T02:51:00.383Z,18.93
2022-08-05T02:52:02.708Z,18.91
2022-08-05T02:53:00.681Z,18.88
2022-08-05T02:54:03.440Z,18.85
2022-08-05T02:55:01.817Z,18.85
2022-08-05T02:56:02.108Z,18.83
2022-08-05T02:57:00.300Z,18.82
2022-08-05T02:58:10.568Z,18.8
2022-08-05T02:59:00.585Z,18.78
2022-08-05T03:00:01.212Z,18.79
2022-08-05T03:01:01.718Z,18.8
2022-08-05T03:02:01.134Z,18.81
2022-08-05T03:03:01.220Z,18.8
2022-08-05T03:04:03.232Z,18.8
2022-08-05T03:05:00.524Z,18.8
2022-08-05T03:06:57.252Z,18.82
2022-08-05T03:07:00.836Z,18.79
2022-08-05T03:08:08.532Z,18.74
2022-08-05T03:09:01.110Z,18.71
2022-08-05T03:10:00.274Z,18.69
2022-08-05T03:11:53.272Z,18.68
2022-08-05T03:12:00.567Z,18.67
2022-08-05T03:14:03.533Z,18.61
2022-08-05T03:15:01.028Z,18.57
2022-08-05T03:16:01.165Z,18.54
2022-08-05T03:17:00.318Z,18.53
2022-08-05T03:18:00.466Z,18.55
2022-08-05T03:19:00.634Z,18.53
2022-08-05T03:20:00.763Z,18.51
2022-08-05T03:21:00.901Z,18.5
2022-08-05T03:22:01.060Z,18.47
2022-08-05T03:23:01.220Z,18.44
2022-08-05T03:24:00.481Z,18.43
2022-08-05T03:25:11.573Z,18.38
2022-08-05T03:26:05.045Z,18.34
2022-08-05T03:27:00.843Z,18.32
2022-08-05T03:28:00.986Z,18.34
2022-08-05T03:29:01.152Z,18.35
2022-08-05T03:30:08.164Z,18.34
2022-08-05T03:31:00.447Z,18.3
2022-08-05T03:32:00.778Z,18.26
2022-08-05T03:33:00.742Z,18.24
2022-08-05T03:34:00.932Z,18.23
2022-08-05T03:35:01.055Z,18.21
2022-08-05T03:36:01.196Z,18.19
2022-08-05T03:37:00.356Z,18.19
2022-08-05T03:38:00.512Z,18.14
2022-08-05T03:39:00.734Z,18.12
2022-08-05T03:40:01.512Z,18.11
2022-08-05T03:41:00.963Z,18.1
2022-08-05T03:42:01.124Z,18.11
2022-08-05T03:43:01.394Z,18.1
2022-08-05T03:44:11.336Z,18.1
2022-08-05T03:45:01.874Z,18.08
2022-08-05T03:46:00.725Z,18.06
2022-08-05T03:47:00.880Z,18.08
2022-08-05T03:48:01.043Z,18.11
2022-08-05T03:49:01.832Z,18.12
2022-08-05T03:50:00.348Z,18.12
2022-08-05T03:52:35.082Z,18.11
2022-08-05T03:52:50.386Z,18.1
2022-08-05T03:55:34.662Z,18.1
2022-08-05T03:55:51.688Z,18.09
2022-08-05T03:56:04.250Z,18.11
2022-08-05T03:56:11.015Z,18.13
2022-08-05T03:57:00.446Z,18.12
2022-08-05T03:58:00.565Z,18.1
2022-08-05T03:59:00.732Z,18.09
2022-08-05T04:00:01.649Z,18.05
2022-08-05T04:01:01.097Z,18.02
2022-08-05T04:02:01.254Z,18.02
2022-08-05T04:03:00.337Z,18.03
2022-08-05T04:04:09.367Z,18.05
2022-08-05T04:05:00.652Z,18.06
2022-08-05T04:06:00.805Z,18.07
2022-08-05T04:07:00.939Z,18.06
2022-08-05T04:08:01.079Z,18.05
2022-08-05T04:09:01.235Z,18.04
2022-08-05T04:10:01.786Z,18.04
2022-08-05T04:11:00.580Z,18.05
2022-08-05T04:12:00.698Z,18.06
2022-08-05T04:13:03.415Z,18.04
2022-08-05T04:14:00.997Z,18.04
2022-08-05T04:15:01.156Z,18.02
2022-08-05T04:16:02.889Z,18.03
2022-08-05T04:17:00.587Z,18.04
2022-08-05T04:18:00.589Z,18.04
2022-08-05T04:19:00.742Z,18.03
2022-08-05T04:20:00.892Z,18.04
2022-08-05T04:21:01.084Z,18.06
2022-08-05T04:22:08.641Z,18.08
2022-08-05T04:23:00.348Z,18.06
2022-08-05T04:24:06.744Z,18.08
2022-08-05T04:25:00.766Z,18.11
2022-08-05T04:26:01.106Z,18.14
2022-08-05T04:27:00.968Z,18.14
2022-08-05T04:28:05.594Z,18.12
2022-08-05T04:29:01.260Z,18.14
2022-08-05T04:30:03.823Z,18.19
2022-08-05T04:31:01.020Z,18.25
2022-08-05T04:32:00.740Z,18.3
2022-08-05T04:33:00.873Z,18.34
2022-08-05T04:34:31.697Z,18.36
2022-08-05T04:35:01.169Z,18.37
2022-08-05T04:36:15.956Z,18.41
2022-08-05T04:37:00.672Z,18.42
2022-08-05T04:38:06.426Z,18.44
2022-08-05T04:39:00.815Z,18.51
2022-08-05T04:40:00.941Z,18.53
2022-08-05T04:41:01.087Z,18.53
2022-08-05T04:42:01.876Z,18.53
2022-08-05T04:43:00.392Z,18.52
2022-08-05T04:44:00.543Z,18.55
2022-08-05T04:45:00.926Z,18.59
2022-08-05T04:46:00.838Z,18.67
2022-08-05T04:47:09.943Z,18.68
2022-08-05T04:48:01.125Z,18.65
2022-08-05T04:49:00.284Z,18.64
2022-08-05T04:50:01.402Z,18.66
2022-08-05T04:51:02.862Z,18.68
2022-08-05T04:52:00.806Z,18.71
2022-08-05T04:53:01.075Z,18.71
2022-08-05T04:54:01.317Z,18.71
2022-08-05T04:55:13.844Z,18.71
2022-08-05T04:56:33.568Z,18.71
2022-08-05T04:57:00.508Z,18.71
2022-08-05T04:58:00.636Z,18.71
2022-08-05T04:59:00.776Z,18.71
2022-08-05T05:00:00.938Z,18.7
2022-08-05T05:01:01.146Z,18.7
2022-08-05T05:02:35.330Z,18.7
2022-08-05T05:03:03.985Z,18.71
2022-08-05T05:04:00.535Z,18.76
2022-08-05T05:05:02.314Z,18.84
2022-08-05T05:06:39.292Z,18.97
2022-08-05T05:07:01.004Z,19.07
2022-08-05T05:08:02.050Z,19.14
2022-08-05T05:09:00.683Z,19.2
2022-08-05T05:10:02.186Z,19.22
2022-08-05T05:11:00.558Z,19.22
2022-08-05T05:12:03.081Z,19.21
2022-08-05T05:13:01.905Z,19.23
2022-08-05T05:14:01.020Z,19.25
2022-08-05T05:15:03.802Z,19.3
2022-08-05T05:16:05.921Z,19.35
2022-08-05T05:17:00.574Z,19.36
2022-08-05T05:18:00.969Z,19.38
2022-08-05T05:19:18.860Z,19.44
2022-08-05T05:20:00.970Z,19.48
2022-08-05T05:21:01.133Z,19.58
2022-08-05T05:22:00.275Z,19.65
2022-08-05T05:23:04.187Z,19.66
2022-08-05T05:24:04.231Z,19.68
2022-08-05T05:25:01.278Z,19.74
2022-08-05T05:26:00.898Z,19.83
2022-08-05T05:27:01.029Z,19.91
2022-08-05T05:28:01.184Z,19.96
2022-08-05T05:29:00.352Z,20.11
2022-08-05T05:30:04.272Z,20.26
2022-08-05T05:31:00.646Z,20.42
2022-08-05T05:32:00.845Z,20.54
2022-08-05T05:33:03.838Z,20.62
2022-08-05T05:34:02.478Z,20.69
2022-08-05T05:35:01.268Z,20.79
2022-08-05T05:36:00.399Z,20.92
2022-08-05T05:37:00.556Z,20.99
2022-08-05T05:38:02.197Z,21.07
2022-08-05T05:39:03.841Z,21.11
2022-08-05T05:40:01.063Z,21.2
2022-08-05T05:41:01.193Z,21.3
2022-08-05T05:42:00.356Z,21.42
2022-08-05T05:43:00.505Z,21.51
2022-08-05T05:44:00.874Z,21.54
2022-08-05T05:45:00.831Z,21.6
2022-08-05T05:46:00.948Z,21.63
2022-08-05T05:47:02.263Z,21.67
2022-08-05T05:48:05.522Z,21.72
2022-08-05T05:49:00.395Z,21.73
2022-08-05T05:50:01.395Z,21.75
2022-08-05T05:51:15.216Z,21.76
2022-08-05T05:52:00.855Z,21.76
2022-08-05T05:53:01.008Z,21.77
2022-08-05T05:54:01.151Z,21.74
2022-08-05T05:55:00.326Z,21.74
2022-08-05T05:56:03.201Z,21.76
2022-08-05T05:57:00.603Z,21.8
2022-08-05T05:58:01.992Z,21.88
2022-08-05T05:59:03.188Z,21.98
2022-08-05T06:00:01.058Z,22.11
2022-08-05T06:01:12.407Z,22.22
2022-08-05T06:02:00.364Z,22.31
2022-08-05T06:03:00.527Z,22.37
2022-08-05T06:04:03.679Z,22.43
2022-08-05T06:05:00.837Z,22.5
2022-08-05T06:06:00.997Z,22.56
2022-08-05T06:07:01.395Z,22.57
2022-08-05T06:08:01.759Z,22.63
2022-08-05T06:09:00.420Z,22.71
2022-08-05T06:10:04.314Z,22.73
2022-08-05T06:11:00.740Z,22.68
2022-08-05T06:12:02.691Z,22.66
2022-08-05T06:13:01.030Z,22.68
2022-08-05T06:14:01.180Z,22.78
2022-08-05T06:15:00.322Z,22.87
2022-08-05T06:16:29.707Z,22.98
2022-08-05T06:17:01.985Z,23.09
2022-08-05T06:18:00.797Z,23.18
2022-08-05T06:19:05.504Z,23.3
2022-08-05T06:20:01.090Z,23.35
2022-08-05T06:21:01.235Z,23.39
2022-08-05T06:22:00.407Z,23.45
2022-08-05T06:23:00.529Z,23.52
2022-08-05T06:24:00.679Z,23.56
2022-08-05T06:25:00.837Z,23.61
2022-08-05T06:26:13.559Z,23.69
2022-08-05T06:27:01.154Z,23.75
2022-08-05T06:28:10.965Z,23.82
2022-08-05T06:29:03.299Z,23.84
2022-08-05T06:30:04.297Z,23.9
2022-08-05T06:31:00.719Z,23.99
2022-08-05T06:32:00.889Z,24.08
2022-08-05T06:33:01.018Z,24.15
2022-08-05T06:34:06.792Z,24.13
2022-08-05T06:35:00.312Z,24.15
2022-08-05T06:36:07.829Z,24.19
2022-08-05T06:37:00.646Z,24.27
2022-08-05T06:38:04.235Z,24.35
2022-08-05T06:39:00.970Z,24.41
2022-08-05T06:40:02.464Z,24.44
2022-08-05T06:41:01.227Z,24.44
2022-08-05T06:42:00.397Z,24.34
2022-08-05T06:43:00.529Z,24.32
2022-08-05T06:44:00.872Z,24.35
2022-08-05T06:45:06.463Z,24.48
2022-08-05T06:46:04.037Z,24.58
2022-08-05T06:47:02.409Z,24.66
2022-08-05T06:48:44.248Z,24.69
2022-08-05T06:49:03.234Z,24.76
2022-08-05T06:50:05.092Z,24.77
2022-08-05T06:51:00.747Z,24.79
2022-08-05T06:52:00.925Z,24.77
2022-08-05T06:53:11.299Z,24.68
2022-08-05T06:54:01.864Z,24.62
2022-08-05T06:55:00.373Z,24.57
2022-08-05T06:56:00.508Z,24.51
2022-08-05T06:57:13.820Z,24.54
2022-08-05T06:58:20.229Z,24.56
2022-08-05T06:59:00.972Z,24.56
2022-08-05T07:00:01.125Z,24.47
2022-08-05T07:02:00.399Z,24.4
2022-08-05T07:03:00.550Z,24.36
2022-08-05T07:04:00.676Z,24.36
2022-08-05T07:05:00.835Z,24.27
2022-08-05T07:06:00.985Z,24.18
2022-08-05T07:07:01.139Z,24.14
2022-08-05T07:08:00.293Z,24.1
2022-08-05T07:09:04.149Z,24.09
2022-08-05T07:10:03.406Z,24.06
2022-08-05T07:11:00.719Z,24.03
2022-08-05T07:12:00.913Z,23.99
2022-08-05T07:13:01.023Z,23.97
2022-08-05T07:14:01.193Z,24.03
2022-08-05T07:15:00.323Z,24.09
2022-08-05T07:16:04.766Z,24.17
2022-08-05T07:17:58.777Z,24.25
2022-08-05T07:18:08.924Z,24.29
2022-08-05T07:19:00.949Z,24.39
2022-08-05T07:20:33.459Z,24.42
2022-08-05T07:21:04.830Z,24.4
2022-08-05T07:22:02.660Z,24.39
2022-08-05T07:23:00.547Z,24.31
2022-08-05T07:24:01.230Z,24.3
2022-08-05T07:25:23.091Z,24.33
2022-08-05T07:26:01.030Z,24.31
2022-08-05T07:27:01.173Z,24.28
2022-08-05T07:28:04.097Z,24.27
2022-08-05T07:29:00.498Z,24.27
2022-08-05T07:30:27.641Z,24.21
2022-08-05T07:31:00.787Z,24.26
2022-08-05T07:32:00.944Z,24.3
2022-08-05T07:33:01.097Z,24.29
2022-08-05T07:34:01.235Z,24.25
2022-08-05T07:35:00.400Z,24.26
2022-08-05T07:36:05.651Z,24.21
2022-08-05T07:37:00.718Z,24.18
2022-08-05T07:38:00.896Z,24.13
2022-08-05T07:39:01.068Z,24.04
2022-08-05T07:40:25.822Z,24.06
2022-08-05T07:41:16.889Z,24.16
2022-08-05T07:42:13.302Z,24.25
2022-08-05T07:43:04.772Z,24.33
2022-08-05T07:44:00.759Z,24.36
2022-08-05T07:45:00.899Z,24.41
2022-08-05T07:46:01.062Z,24.39
2022-08-05T07:47:01.204Z,24.43
2022-08-05T07:48:00.369Z,24.54
2022-08-05T07:49:04.944Z,24.58
2022-08-05T07:50:00.660Z,24.59
2022-08-05T07:51:00.796Z,24.59
2022-08-05T07:52:00.960Z,24.62
2022-08-05T07:53:01.116Z,24.64
2022-08-05T07:54:01.786Z,24.6
2022-08-05T07:55:00.434Z,24.59
2022-08-05T07:56:06.153Z,24.62
2022-08-05T07:57:14.860Z,24.69
2022-08-05T07:58:03.132Z,24.75
2022-08-05T07:59:01.080Z,24.79
2022-08-05T08:00:01.233Z,24.86
2022-08-05T08:01:00.483Z,24.9
2022-08-05T08:02:00.522Z,24.93
2022-08-05T08:03:14.555Z,24.95
2022-08-05T08:04:00.861Z,25.05
2022-08-05T08:05:00.978Z,25.01
2022-08-05T08:06:01.130Z,24.99
2022-08-05T08:07:00.282Z,25.03
2022-08-05T08:08:00.790Z,25.09
2022-08-05T08:09:00.603Z,25.17
2022-08-05T08:10:00.733Z,25.24
2022-08-05T08:11:00.903Z,25.35
2022-08-05T08:12:09.147Z,25.37
2022-08-05T08:13:01.695Z,25.48
2022-08-05T08:14:01.110Z,25.54
2022-08-05T08:15:02.708Z,25.45
2022-08-05T08:16:34.354Z,25.39
2022-08-05T08:17:00.806Z,25.43
2022-08-05T08:18:02.030Z,25.49
2022-08-05T08:19:01.133Z,25.57
2022-08-05T08:21:03.919Z,25.74
2022-08-05T08:22:00.526Z,25.71
2022-08-05T08:23:03.084Z,25.62
2022-08-05T08:24:04.685Z,25.47
2022-08-05T08:25:02.703Z,25.4
2022-08-05T08:26:02.735Z,25.38
2022-08-05T08:27:00.274Z,25.48
2022-08-05T08:28:00.436Z,25.65
2022-08-05T08:29:22.296Z,25.78
2022-08-05T08:30:06.063Z,25.79
2022-08-05T08:31:01.014Z,25.84
2022-08-05T08:32:01.054Z,25.86
2022-08-05T08:33:04.444Z,25.78
2022-08-05T08:34:00.360Z,25.73
2022-08-05T08:35:00.531Z,25.73
2022-08-05T08:36:29.855Z,25.77
2022-08-05T08:37:04.850Z,25.84
2022-08-05T08:38:00.970Z,25.91
2022-08-05T08:39:01.657Z,25.96
2022-08-05T08:40:00.393Z,26.01
2022-08-05T08:41:00.423Z,26.08
2022-08-05T08:42:02.480Z,26.11
2022-08-05T08:44:56.502Z,26.22
2022-08-05T08:45:18.773Z,26.35
2022-08-05T08:45:20.711Z,26.45
2022-08-05T08:46:01.188Z,26.49
2022-08-05T08:47:00.330Z,26.45
2022-08-05T08:48:06.805Z,26.47
2022-08-05T08:49:09.554Z,26.49
2022-08-05T08:50:22.347Z,26.53
2022-08-05T08:51:22.594Z,26.58
2022-08-05T08:52:03.525Z,26.66
2022-08-05T08:53:01.228Z,26.75
2022-08-05T08:54:00.378Z,26.84
2022-08-05T08:55:00.563Z,26.86
2022-08-05T08:56:03.920Z,26.89
2022-08-05T08:57:00.872Z,26.87
2022-08-05T08:58:01.018Z,26.97
2022-08-05T08:59:01.168Z,26.99
2022-08-05T09:00:00.336Z,27.07
2022-08-05T09:01:00.535Z,27.08
2022-08-05T09:02:00.942Z,26.99
2022-08-05T09:03:00.788Z,26.87
2022-08-05T09:04:00.926Z,26.85
2022-08-05T09:05:17.287Z,26.84
2022-08-05T09:06:08.020Z,26.97
2022-08-05T09:07:00.421Z,27.02
2022-08-05T09:08:00.572Z,27.08
2022-08-05T09:09:01.080Z,27.23
2022-08-05T09:10:00.882Z,27.4
2022-08-05T09:11:01.023Z,27.53
2022-08-05T09:12:11.797Z,27.58
2022-08-05T09:13:04.878Z,27.6
2022-08-05T09:14:00.978Z,27.56
2022-08-05T09:15:05.567Z,27.47
2022-08-05T09:16:00.772Z,27.53
2022-08-05T09:17:00.931Z,27.63
2022-08-05T09:18:01.073Z,27.63
2022-08-05T09:19:01.223Z,27.56
2022-08-05T09:20:02.641Z,27.59
2022-08-05T09:21:00.524Z,27.59
2022-08-05T09:22:21.940Z,27.7
2022-08-05T09:23:05.206Z,27.83
2022-08-05T09:24:02.535Z,27.99
2022-08-05T09:25:01.124Z,28.17
2022-08-05T09:26:06.464Z,28.19
2022-08-05T09:27:00.412Z,28.15
2022-08-05T09:28:04.345Z,28.11
2022-08-05T09:29:00.698Z,28.09
2022-08-05T09:30:06.088Z,28.17
2022-08-05T09:31:01.026Z,28.29
2022-08-05T09:32:41.741Z,28.35
2022-08-05T09:33:00.301Z,28.39
2022-08-05T09:34:00.443Z,28.41
2022-08-05T09:35:00.594Z,28.44
2022-08-05T09:36:04.771Z,28.39
2022-08-05T09:37:00.892Z,28.18
2022-08-05T09:38:12.481Z,28.15
2022-08-05T09:39:01.296Z,28.2
2022-08-05T09:40:00.497Z,28.25
2022-08-05T09:41:00.525Z,28.33
2022-08-05T09:42:00.639Z,28.32
2022-08-05T09:43:00.791Z,28.26
2022-08-05T09:44:00.958Z,28.2
2022-08-05T09:45:17.718Z,28.27
2022-08-05T09:47:00.397Z,28.41
2022-08-05T09:48:00.516Z,28.49
2022-08-05T09:49:07.722Z,28.58
2022-08-05T09:50:02.723Z,28.61
2022-08-05T09:51:00.973Z,28.61
2022-08-05T09:52:01.140Z,28.59
2022-08-05T09:53:00.262Z,28.64
2022-08-05T09:54:00.607Z,28.74
2022-08-05T09:55:00.590Z,28.8
2022-08-05T09:56:12.655Z,28.88
2022-08-05T09:57:01.213Z,29.04
2022-08-05T09:58:01.056Z,29.12
2022-08-05T09:59:01.190Z,29.18
2022-08-05T10:00:03.654Z,29.24
2022-08-05T10:01:00.495Z,29.26
2022-08-05T10:02:00.643Z,29.24
2022-08-05T10:03:00.870Z,29.24
2022-08-05T10:04:00.950Z,29.24
2022-08-05T10:05:01.093Z,29.17
2022-08-05T10:06:04.764Z,29.04
2022-08-05T10:07:01.480Z,28.99
2022-08-05T10:08:35.254Z,28.97
2022-08-05T10:09:00.671Z,28.86
2022-08-05T10:10:13.761Z,28.68
2022-08-05T10:11:00.968Z,28.53
2022-08-05T10:12:04.787Z,28.47
2022-08-05T10:13:00.270Z,28.41
2022-08-05T10:14:00.420Z,28.52
2022-08-05T10:15:00.573Z,28.75
2022-08-05T10:16:00.726Z,28.89
2022-08-05T10:17:00.890Z,28.88
2022-08-05T10:18:01.060Z,28.82
2022-08-05T10:19:01.181Z,28.73
2022-08-05T10:20:03.972Z,28.75
2022-08-05T10:21:06.133Z,28.65
2022-08-05T10:22:00.635Z,28.55
2022-08-05T10:23:00.793Z,28.46
2022-08-05T10:24:01.854Z,28.33
2022-08-05T10:25:01.250Z,28.21
2022-08-05T10:26:01.243Z,28.21
2022-08-05T10:27:01.185Z,28.24
2022-08-05T10:28:09.478Z,28.24
2022-08-05T10:29:00.825Z,28.25
2022-08-05T10:30:07.209Z,28.35
2022-08-05T10:32:53.303Z,28.45
2022-08-05T10:33:00.859Z,28.44
2022-08-05T10:33:02.532Z,28.5
2022-08-05T10:34:00.462Z,28.55
2022-08-05T10:35:01.364Z,28.58
2022-08-05T10:36:00.766Z,28.61
2022-08-05T10:37:00.911Z,28.71
2022-08-05T10:38:01.090Z,28.8
2022-08-05T10:39:01.277Z,28.91
2022-08-05T10:40:18.236Z,29
2022-08-05T10:41:00.620Z,29.14
2022-08-05T10:42:01.314Z,29.14
2022-08-05T10:43:00.875Z,29.06
2022-08-05T10:44:01.004Z,29.05
2022-08-05T10:45:01.157Z,29.07
2022-08-05T10:46:06.296Z,29.19
2022-08-05T10:47:00.460Z,29.31
2022-08-05T10:48:29.694Z,29.28
2022-08-05T10:49:09.810Z,29.29
2022-08-05T10:50:31.777Z,29.32
2022-08-05T10:51:01.073Z,29.44
2022-08-05T10:52:02.642Z,29.5
2022-08-05T10:53:00.406Z,29.44
2022-08-05T10:54:01.614Z,29.26
2022-08-05T10:55:00.690Z,29.16
2022-08-05T10:56:05.041Z,29.21
2022-08-05T10:57:00.994Z,29.21
2022-08-05T10:58:01.172Z,29.17
2022-08-05T10:59:11.458Z,29.13
2022-08-05T11:00:03.062Z,29.11
2022-08-05T11:01:03.118Z,29.03
2022-08-05T11:02:04.812Z,28.95
2022-08-05T11:03:23.438Z,28.97
2022-08-05T11:04:01.183Z,28.97
2022-08-05T11:05:01.196Z,28.97
2022-08-05T11:06:00.344Z,29
2022-08-05T11:07:00.493Z,29.14
2022-08-05T11:08:01.193Z,29.16
2022-08-05T11:09:00.821Z,29.15
2022-08-05T11:10:03.662Z,29.18
2022-08-05T11:11:05.958Z,29.19
2022-08-05T11:12:00.263Z,29.24
2022-08-05T11:13:01.290Z,29.38
2022-08-05T11:14:00.585Z,29.53
2022-08-05T11:15:11.635Z,29.62
2022-08-05T11:16:02.105Z,29.68
2022-08-05T11:17:14.119Z,29.64
2022-08-05T11:18:03.927Z,29.58
2022-08-05T11:19:00.358Z,29.5
2022-08-05T11:20:16.595Z,29.49
2022-08-05T11:21:00.653Z,29.48
2022-08-05T11:22:00.805Z,29.35
2022-08-05T11:23:08.833Z,29.11
2022-08-05T11:24:04.297Z,28.99
2022-08-05T11:26:02.930Z,29.01
2022-08-05T11:26:04.517Z,29.14
2022-08-05T11:27:00.556Z,29.29
2022-08-05T11:28:01.031Z,29.38
2022-08-05T11:29:11.798Z,29.42
2022-08-05T11:30:01.038Z,29.47
2022-08-05T11:31:01.175Z,29.57
2022-08-05T11:32:01.009Z,29.63
2022-08-05T11:33:00.492Z,29.7
2022-08-05T11:34:00.662Z,29.68
2022-08-05T11:35:00.804Z,29.63
2022-08-05T11:36:07.550Z,29.7
2022-08-05T11:37:01.092Z,29.81
2022-08-05T11:38:29.935Z,29.89
2022-08-05T11:39:00.569Z,30.03
2022-08-05T11:40:03.867Z,30.17
2022-08-05T11:41:14.180Z,30.16
2022-08-05T11:42:04.399Z,29.96
2022-08-05T11:43:01.005Z,29.76
2022-08-05T11:44:05.903Z,29.58
2022-08-05T11:45:00.319Z,29.42
2022-08-05T11:46:15.129Z,29.33
2022-08-05T11:47:11.149Z,29.26
2022-08-05T11:48:00.793Z,29.17
2022-08-05T11:49:00.946Z,29.07
2022-08-05T11:50:01.732Z,29.07
2022-08-05T11:51:01.252Z,29.11
2022-08-05T11:52:00.418Z,29.18
2022-08-05T11:53:00.553Z,29.31
2022-08-05T11:54:00.707Z,29.35
2022-08-05T11:55:07.417Z,29.37
2022-08-05T11:56:01.042Z,29.48
2022-08-05T11:57:01.276Z,29.53
2022-08-05T11:58:09.771Z,29.62
2022-08-05T11:59:00.459Z,29.71
2022-08-05T12:00:00.612Z,29.74
2022-08-05T12:01:00.780Z,29.78
2022-08-05T12:02:00.909Z,29.77
2022-08-05T12:03:01.094Z,29.75
2022-08-05T12:04:01.203Z,29.72
2022-08-05T12:05:00.571Z,29.73
2022-08-05T12:06:00.535Z,29.68
2022-08-05T12:07:00.652Z,29.7
2022-08-05T12:08:08.221Z,29.65
2022-08-05T12:09:00.970Z,29.67
2022-08-05T12:10:06.030Z,29.79
2022-08-05T12:11:05.503Z,29.93
2022-08-05T12:12:00.416Z,29.96
2022-08-05T12:13:00.574Z,30.09
2022-08-05T12:14:04.385Z,30.21
2022-08-05T12:15:00.866Z,30.32
2022-08-05T12:16:01.066Z,30.48
2022-08-05T12:17:01.549Z,30.68
2022-08-05T12:18:04.011Z,30.82
2022-08-05T12:19:00.487Z,30.89
2022-08-05T12:20:25.629Z,30.89
2022-08-05T12:21:00.805Z,30.89
2022-08-05T12:22:01.281Z,30.85
2022-08-05T12:23:01.106Z,30.93
2022-08-05T12:24:05.174Z,30.99
2022-08-05T12:25:00.415Z,31.07
2022-08-05T12:26:00.587Z,31.05
2022-08-05T12:27:00.718Z,30.99
2022-08-05T12:28:01.151Z,30.98
2022-08-05T12:29:01.455Z,31.01
2022-08-05T12:30:01.161Z,31.06
2022-08-05T12:31:02.466Z,31.12
2022-08-05T12:32:01.958Z,31.11
2022-08-05T12:33:07.159Z,31.18
2022-08-05T12:34:00.760Z,31.23
2022-08-05T12:35:00.922Z,31.33
2022-08-05T12:36:01.174Z,31.38
2022-08-05T12:37:01.257Z,31.46
2022-08-05T12:38:00.378Z,31.56
2022-08-05T12:39:00.552Z,31.56
2022-08-05T12:40:03.161Z,31.49
2022-08-05T12:41:00.835Z,31.4
2022-08-05T12:42:01.011Z,31.33
2022-08-05T12:43:01.134Z,31.24
2022-08-05T12:44:00.309Z,31.21
2022-08-05T12:45:00.449Z,31.14
2022-08-05T12:46:00.594Z,31.12
2022-08-05T12:47:00.764Z,31.05
2022-08-05T12:48:17.439Z,31.01
2022-08-05T12:49:01.061Z,30.97
2022-08-05T12:50:04.430Z,31.09
2022-08-05T12:51:00.367Z,31.18
2022-08-05T12:52:12.628Z,31.21
2022-08-05T12:53:00.696Z,31.26
2022-08-05T12:54:00.825Z,31.35
2022-08-05T12:55:00.975Z,31.38
2022-08-05T12:56:01.125Z,31.44
2022-08-05T12:57:00.276Z,31.37
2022-08-05T12:58:49.881Z,31.3
2022-08-05T12:59:02.784Z,31.25